sensor_id;sensor_type;location;lat;lon;timestamp;pressure;altitude;pressure_sealevel;temperature;humidity
77939;BME280;67136;47.546;21.630;2023-05-10T00:00:01;100580.25;;;9.92;62.59
77939;BME280;67136;47.546;21.630;2023-05-10T00:03:36;100579.47;;;9.79;62.68
77939;BME280;67136;47.546;21.630;2023-05-10T00:07:07;100581.94;;;9.70;63.63
77939;BME280;67136;47.546;21.630;2023-05-10T00:10:21;100583.47;;;9.61;63.68
77939;BME280;67136;47.546;21.630;2023-05-10T00:13:40;100577.75;;;9.56;63.81
77939;BME280;67136;47.546;21.630;2023-05-10T00:16:58;100571.75;;;9.43;65.23
77939;BME280;67136;47.546;21.630;2023-05-10T00:20:14;100564.47;;;9.36;65.79
77939;BME280;67136;47.546;21.630;2023-05-10T00:23:32;100570.16;;;9.30;65.92
77939;BME280;67136;47.546;21.630;2023-05-10T00:26:57;100563.94;;;9.20;65.74
77939;BME280;67136;47.546;21.630;2023-05-10T00:30:48;100567.13;;;9.12;66.52
77939;BME280;67136;47.546;21.630;2023-05-10T00:34:23;100557.72;;;9.10;67.45
77939;BME280;67136;47.546;21.630;2023-05-10T00:38:03;100566.63;;;9.07;67.64
77939;BME280;67136;47.546;21.630;2023-05-10T00:41:14;100560.72;;;8.93;67.88
77939;BME280;67136;47.546;21.630;2023-05-10T00:44:47;100567.41;;;8.84;67.91
77939;BME280;67136;47.546;21.630;2023-05-10T00:47:54;100559.31;;;8.76;68.38
77939;BME280;67136;47.546;21.630;2023-05-10T00:51:16;100562.25;;;8.71;68.55
77939;BME280;67136;47.546;21.630;2023-05-10T00:54:53;100569.44;;;8.68;68.88
77939;BME280;67136;47.546;21.630;2023-05-10T00:58:39;100568.81;;;8.64;69.38
77939;BME280;67136;47.546;21.630;2023-05-10T01:02:06;100567.25;;;8.62;69.48
77939;BME280;67136;47.546;21.630;2023-05-10T01:05:16;100564.34;;;8.66;69.53
77939;BME280;67136;47.546;21.630;2023-05-10T01:08:29;100567.06;;;8.65;69.96
77939;BME280;67136;47.546;21.630;2023-05-10T01:12:06;100564.75;;;8.60;70.02
77939;BME280;67136;47.546;21.630;2023-05-10T01:19:39;100561.63;;;8.68;71.36
77939;BME280;67136;47.546;21.630;2023-05-10T01:38:59;100556.34;;;8.93;70.72
77939;BME280;67136;47.546;21.630;2023-05-10T01:42:27;100558.94;;;8.93;71.65
77939;BME280;67136;47.546;21.630;2023-05-10T01:46:16;100559.88;;;8.92;71.42
77939;BME280;67136;47.546;21.630;2023-05-10T01:49:31;100551.72;;;8.97;71.57
77939;BME280;67136;47.546;21.630;2023-05-10T01:53:07;100554.34;;;8.97;71.32
77939;BME280;67136;47.546;21.630;2023-05-10T01:56:43;100556.09;;;8.96;71.40
77939;BME280;67136;47.546;21.630;2023-05-10T02:04:40;100555.72;;;8.90;73.79
77939;BME280;67136;47.546;21.630;2023-05-10T02:08:23;100545.72;;;8.84;73.48
77939;BME280;67136;47.546;21.630;2023-05-10T02:11:46;100540.81;;;8.79;73.10
77939;BME280;67136;47.546;21.630;2023-05-10T02:15:29;100547.00;;;8.78;73.83
77939;BME280;67136;47.546;21.630;2023-05-10T02:18:56;100544.81;;;8.72;73.99
77939;BME280;67136;47.546;21.630;2023-05-10T02:23:13;100542.94;;;8.74;75.85
77939;BME280;67136;47.546;21.630;2023-05-10T02:26:39;100540.16;;;8.64;74.93
77939;BME280;67136;47.546;21.630;2023-05-10T02:29:52;100540.03;;;8.66;76.93
77939;BME280;67136;47.546;21.630;2023-05-10T02:33:42;100538.06;;;8.57;75.68
77939;BME280;67136;47.546;21.630;2023-05-10T02:36:59;100539.00;;;8.56;76.40
77939;BME280;67136;47.546;21.630;2023-05-10T02:40:55;100541.84;;;8.53;76.78
77939;BME280;67136;47.546;21.630;2023-05-10T02:44:22;100547.06;;;8.53;78.64
77939;BME280;67136;47.546;21.630;2023-05-10T02:47:42;100547.16;;;8.51;78.14
77939;BME280;67136;47.546;21.630;2023-05-10T02:51:04;100543.72;;;8.51;78.71
77939;BME280;67136;47.546;21.630;2023-05-10T02:58:08;100545.31;;;8.41;79.89
77939;BME280;67136;47.546;21.630;2023-05-10T03:01:27;100539.78;;;8.33;79.18
77939;BME280;67136;47.546;21.630;2023-05-10T03:04:48;100547.00;;;8.29;80.18
77939;BME280;67136;47.546;21.630;2023-05-10T03:08:16;100545.00;;;8.33;80.80
77939;BME280;67136;47.546;21.630;2023-05-10T03:11:47;100549.25;;;8.34;81.30
77939;BME280;67136;47.546;21.630;2023-05-10T03:22:53;100542.91;;;8.38;80.00
77939;BME280;67136;47.546;21.630;2023-05-10T03:26:26;100542.69;;;8.41;80.32
77939;BME280;67136;47.546;21.630;2023-05-10T03:30:07;100542.69;;;8.41;80.53
77939;BME280;67136;47.546;21.630;2023-05-10T03:33:26;100543.31;;;8.44;80.59
77939;BME280;67136;47.546;21.630;2023-05-10T03:36:39;100542.25;;;8.47;80.26
77939;BME280;67136;47.546;21.630;2023-05-10T03:40:18;100541.00;;;8.52;81.09
77939;BME280;67136;47.546;21.630;2023-05-10T03:43:57;100541.41;;;8.59;81.31
77939;BME280;67136;47.546;21.630;2023-05-10T03:47:19;100539.94;;;8.67;80.91
77939;BME280;67136;47.546;21.630;2023-05-10T03:54:31;100549.37;;;8.81;79.59
77939;BME280;67136;47.546;21.630;2023-05-10T03:58:06;100551.97;;;8.94;79.59
77939;BME280;67136;47.546;21.630;2023-05-10T04:01:32;100549.00;;;8.98;79.50
77939;BME280;67136;47.546;21.630;2023-05-10T04:05:02;100544.78;;;9.08;79.44
77939;BME280;67136;47.546;21.630;2023-05-10T04:09:02;100542.84;;;9.23;79.04
77939;BME280;67136;47.546;21.630;2023-05-10T04:12:08;100542.72;;;9.24;78.70
77939;BME280;67136;47.546;21.630;2023-05-10T04:15:19;100549.66;;;9.36;78.37
77939;BME280;67136;47.546;21.630;2023-05-10T04:18:35;100549.66;;;9.36;78.69
77939;BME280;67136;47.546;21.630;2023-05-10T04:21:56;100553.00;;;9.38;78.52
77939;BME280;67136;47.546;21.630;2023-05-10T04:25:42;100546.28;;;9.47;78.24
77939;BME280;67136;47.546;21.630;2023-05-10T04:29:13;100548.31;;;9.54;77.83
77939;BME280;67136;47.546;21.630;2023-05-10T04:36:33;100546.19;;;9.59;77.42
77939;BME280;67136;47.546;21.630;2023-05-10T04:39:45;100557.34;;;9.61;77.04
77939;BME280;67136;47.546;21.630;2023-05-10T04:43:07;100550.25;;;9.63;76.92
77939;BME280;67136;47.546;21.630;2023-05-10T04:46:27;100547.16;;;9.69;76.67
77939;BME280;67136;47.546;21.630;2023-05-10T04:49:46;100544.78;;;9.66;76.65
77939;BME280;67136;47.546;21.630;2023-05-10T04:53:25;100549.56;;;9.72;76.44
77939;BME280;67136;47.546;21.630;2023-05-10T04:57:01;100549.34;;;9.86;75.58
77939;BME280;67136;47.546;21.630;2023-05-10T05:00:46;100551.03;;;9.87;75.69
77939;BME280;67136;47.546;21.630;2023-05-10T05:04:25;100547.59;;;9.98;75.10
77939;BME280;67136;47.546;21.630;2023-05-10T05:07:35;100546.06;;;9.95;75.07
77939;BME280;67136;47.546;21.630;2023-05-10T05:10:47;100547.09;;;9.93;74.92
77939;BME280;67136;47.546;21.630;2023-05-10T05:14:11;100548.19;;;9.90;75.01
77939;BME280;67136;47.546;21.630;2023-05-10T05:17:16;100550.31;;;9.96;74.65
77939;BME280;67136;47.546;21.630;2023-05-10T05:20:35;100551.53;;;10.03;74.15
77939;BME280;67136;47.546;21.630;2023-05-10T05:23:41;100557.84;;;10.23;73.29
77939;BME280;67136;47.546;21.630;2023-05-10T05:26:47;100550.41;;;10.41;72.43
77939;BME280;67136;47.546;21.630;2023-05-10T05:29:57;100557.28;;;10.53;71.06
77939;BME280;67136;47.546;21.630;2023-05-10T05:33:18;100554.66;;;10.75;69.81
77939;BME280;67136;47.546;21.630;2023-05-10T05:36:26;100562.56;;;10.95;69.23
77939;BME280;67136;47.546;21.630;2023-05-10T05:39:38;100557.91;;;11.10;68.65
77939;BME280;67136;47.546;21.630;2023-05-10T05:43:04;100559.03;;;11.28;68.33
77939;BME280;67136;47.546;21.630;2023-05-10T05:46:09;100560.69;;;11.29;67.81
77939;BME280;67136;47.546;21.630;2023-05-10T05:49:13;100560.13;;;11.57;66.49
77939;BME280;67136;47.546;21.630;2023-05-10T05:52:31;100553.47;;;11.53;65.10
77939;BME280;67136;47.546;21.630;2023-05-10T05:55:56;100554.81;;;11.79;64.81
77939;BME280;67136;47.546;21.630;2023-05-10T05:59:05;100548.66;;;11.90;63.80
77939;BME280;67136;47.546;21.630;2023-05-10T06:02:21;100554.59;;;12.42;62.06
77939;BME280;67136;47.546;21.630;2023-05-10T06:05:28;100552.63;;;13.43;59.63
77939;BME280;67136;47.546;21.630;2023-05-10T06:08:38;100560.88;;;13.00;59.64
77939;BME280;67136;47.546;21.630;2023-05-10T06:11:55;100557.34;;;13.49;59.21
77939;BME280;67136;47.546;21.630;2023-05-10T06:15:15;100561.19;;;13.73;58.05
77939;BME280;67136;47.546;21.630;2023-05-10T06:18:28;100558.84;;;13.80;57.90
77939;BME280;67136;47.546;21.630;2023-05-10T06:21:47;100557.28;;;13.97;55.96
77939;BME280;67136;47.546;21.630;2023-05-10T06:25:13;100565.84;;;14.18;55.63
77939;BME280;67136;47.546;21.630;2023-05-10T06:28:32;100564.97;;;15.35;52.41
77939;BME280;67136;47.546;21.630;2023-05-10T06:31:50;100560.78;;;16.54;49.69
77939;BME280;67136;47.546;21.630;2023-05-10T06:35:11;100563.84;;;17.33;46.36
77939;BME280;67136;47.546;21.630;2023-05-10T06:38:30;100562.69;;;17.35;45.34
77939;BME280;67136;47.546;21.630;2023-05-10T06:42:39;100563.00;;;17.32;46.48
77939;BME280;67136;47.546;21.630;2023-05-10T06:45:49;100567.88;;;16.28;48.15
77939;BME280;67136;47.546;21.630;2023-05-10T06:49:18;100562.81;;;15.66;49.30
77939;BME280;67136;47.546;21.630;2023-05-10T06:52:39;100567.88;;;16.02;48.96
77939;BME280;67136;47.546;21.630;2023-05-10T06:55:45;100563.91;;;16.24;48.96
77939;BME280;67136;47.546;21.630;2023-05-10T06:59:04;100568.25;;;16.07;49.06
77939;BME280;67136;47.546;21.630;2023-05-10T07:02:12;100562.25;;;16.90;47.48
77939;BME280;67136;47.546;21.630;2023-05-10T07:05:27;100569.56;;;17.04;46.45
77939;BME280;67136;47.546;21.630;2023-05-10T07:08:31;100563.31;;;16.64;46.76
77939;BME280;67136;47.546;21.630;2023-05-10T07:11:54;100571.47;;;16.78;47.96
77939;BME280;67136;47.546;21.630;2023-05-10T07:15:13;100566.13;;;16.70;46.97
77939;BME280;67136;47.546;21.630;2023-05-10T07:18:39;100569.28;;;15.89;48.59
77939;BME280;67136;47.546;21.630;2023-05-10T07:22:04;100576.81;;;15.66;49.18
77939;BME280;67136;47.546;21.630;2023-05-10T07:25:23;100572.78;;;15.97;49.66
77939;BME280;67136;47.546;21.630;2023-05-10T07:28:55;100566.06;;;16.29;49.21
77939;BME280;67136;47.546;21.630;2023-05-10T07:32:09;100567.50;;;16.23;48.85
77939;BME280;67136;47.546;21.630;2023-05-10T07:35:29;100564.88;;;16.49;48.30
77939;BME280;67136;47.546;21.630;2023-05-10T07:38:45;100567.19;;;16.85;47.56
77939;BME280;67136;47.546;21.630;2023-05-10T07:42:07;100570.00;;;17.50;46.03
77939;BME280;67136;47.546;21.630;2023-05-10T07:45:21;100568.38;;;17.49;45.41
77939;BME280;67136;47.546;21.630;2023-05-10T07:48:26;100573.28;;;18.48;43.24
77939;BME280;67136;47.546;21.630;2023-05-10T07:51:51;100570.53;;;18.72;41.98
77939;BME280;67136;47.546;21.630;2023-05-10T07:55:04;100569.47;;;19.88;40.41
77939;BME280;67136;47.546;21.630;2023-05-10T07:58:14;100558.84;;;20.98;38.02
77939;BME280;67136;47.546;21.630;2023-05-10T08:01:34;100563.34;;;21.75;36.82
77939;BME280;67136;47.546;21.630;2023-05-10T08:05:03;100567.31;;;21.64;36.76
77939;BME280;67136;47.546;21.630;2023-05-10T08:08:26;100566.72;;;22.39;35.52
77939;BME280;67136;47.546;21.630;2023-05-10T08:11:49;100558.81;;;24.31;31.18
77939;BME280;67136;47.546;21.630;2023-05-10T08:15:09;100572.19;;;23.85;31.79
77939;BME280;67136;47.546;21.630;2023-05-10T08:18:35;100561.03;;;24.40;30.61
77939;BME280;67136;47.546;21.630;2023-05-10T08:21:42;100561.66;;;25.75;28.86
77939;BME280;67136;47.546;21.630;2023-05-10T08:25:05;100564.09;;;25.52;29.54
77939;BME280;67136;47.546;21.630;2023-05-10T08:28:19;100570.13;;;24.20;28.88
77939;BME280;67136;47.546;21.630;2023-05-10T08:31:49;100567.50;;;22.67;30.03
77939;BME280;67136;47.546;21.630;2023-05-10T08:34:57;100574.50;;;23.15;30.55
77939;BME280;67136;47.546;21.630;2023-05-10T08:42:06;100559.75;;;25.51;28.14
77939;BME280;67136;47.546;21.630;2023-05-10T08:45:25;100563.31;;;25.01;28.91
77939;BME280;67136;47.546;21.630;2023-05-10T08:48:42;100570.19;;;27.12;26.46
77939;BME280;67136;47.546;21.630;2023-05-10T08:51:59;100563.50;;;26.84;26.34
77939;BME280;67136;47.546;21.630;2023-05-10T08:55:36;100558.25;;;27.37;25.69
77939;BME280;67136;47.546;21.630;2023-05-10T08:59:02;100557.12;;;26.97;25.88
77939;BME280;67136;47.546;21.630;2023-05-10T09:02:55;100552.72;;;26.12;27.16
77939;BME280;67136;47.546;21.630;2023-05-10T09:06:20;100560.13;;;27.19;25.75
77939;BME280;67136;47.546;21.630;2023-05-10T09:09:27;100553.62;;;25.75;26.64
77939;BME280;67136;47.546;21.630;2023-05-10T09:12:58;100551.53;;;24.58;27.95
77939;BME280;67136;47.546;21.630;2023-05-10T09:16:16;100559.81;;;23.58;30.28
77939;BME280;67136;47.546;21.630;2023-05-10T09:19:48;100552.69;;;24.88;27.93
77939;BME280;67136;47.546;21.630;2023-05-10T09:23:00;100554.97;;;27.06;24.22
77939;BME280;67136;47.546;21.630;2023-05-10T09:26:19;100557.47;;;28.98;22.75
77939;BME280;67136;47.546;21.630;2023-05-10T09:29:42;100549.84;;;29.35;21.49
77939;BME280;67136;47.546;21.630;2023-05-10T09:32:47;100535.25;;;28.91;21.63
77939;BME280;67136;47.546;21.630;2023-05-10T09:36:05;100547.50;;;28.36;22.00
77939;BME280;67136;47.546;21.630;2023-05-10T09:39:14;100541.00;;;29.68;21.28
77939;BME280;67136;47.546;21.630;2023-05-10T09:42:19;100525.31;;;28.29;22.00
77939;BME280;67136;47.546;21.630;2023-05-10T09:45:26;100531.00;;;28.67;21.56
77939;BME280;67136;47.546;21.630;2023-05-10T09:48:42;100532.19;;;29.89;20.24
77939;BME280;67136;47.546;21.630;2023-05-10T09:52:04;100527.56;;;31.62;18.58
77939;BME280;67136;47.546;21.630;2023-05-10T09:55:08;100523.75;;;28.96;19.22
77939;BME280;67136;47.546;21.630;2023-05-10T09:58:21;100518.13;;;29.87;18.64
77939;BME280;67136;47.546;21.630;2023-05-10T10:01:27;100521.75;;;30.95;18.30
77939;BME280;67136;47.546;21.630;2023-05-10T10:04:31;100515.78;;;31.41;18.33
77939;BME280;67136;47.546;21.630;2023-05-10T10:07:39;100511.59;;;30.59;18.68
77939;BME280;67136;47.546;21.630;2023-05-10T10:10:46;100504.00;;;26.87;22.17
77939;BME280;67136;47.546;21.630;2023-05-10T10:13:51;100497.56;;;26.88;22.33
77939;BME280;67136;47.546;21.630;2023-05-10T10:16:56;100491.81;;;27.56;21.90
77939;BME280;67136;47.546;21.630;2023-05-10T10:20:11;100486.41;;;28.48;19.99
77939;BME280;67136;47.546;21.630;2023-05-10T10:23:17;100486.41;;;30.32;19.12
77939;BME280;67136;47.546;21.630;2023-05-10T10:26:21;100490.97;;;31.49;17.78
77939;BME280;67136;47.546;21.630;2023-05-10T10:29:47;100488.50;;;29.25;18.03
77939;BME280;67136;47.546;21.630;2023-05-10T10:36:02;100475.97;;;30.84;16.95
77939;BME280;67136;47.546;21.630;2023-05-10T10:39:11;100473.91;;;30.69;17.17
77939;BME280;67136;47.546;21.630;2023-05-10T10:42:44;100462.88;;;27.58;20.37
77939;BME280;67136;47.546;21.630;2023-05-10T10:50:08;100456.00;;;24.78;22.87
77939;BME280;67136;47.546;21.630;2023-05-10T10:53:21;100452.50;;;25.15;21.96
77939;BME280;67136;47.546;21.630;2023-05-10T10:56:26;100448.59;;;25.42;21.74
77939;BME280;67136;47.546;21.630;2023-05-10T10:59:29;100438.94;;;27.91;19.21
77939;BME280;67136;47.546;21.630;2023-05-10T11:06:02;100449.19;;;31.35;16.19
77939;BME280;67136;47.546;21.630;2023-05-10T11:09:11;100441.66;;;30.58;16.33
77939;BME280;67136;47.546;21.630;2023-05-10T11:12:17;100440.31;;;33.20;14.26
77939;BME280;67136;47.546;21.630;2023-05-10T11:15:29;100440.09;;;33.42;14.24
77939;BME280;67136;47.546;21.630;2023-05-10T11:18:39;100435.59;;;32.55;13.95
77939;BME280;67136;47.546;21.630;2023-05-10T11:21:51;100439.16;;;29.08;15.98
77939;BME280;67136;47.546;21.630;2023-05-10T11:25:03;100431.66;;;29.27;16.41
77939;BME280;67136;47.546;21.630;2023-05-10T11:28:11;100432.63;;;29.87;16.13
77939;BME280;67136;47.546;21.630;2023-05-10T11:31:19;100432.72;;;27.56;18.79
77939;BME280;67136;47.546;21.630;2023-05-10T11:34:27;100430.25;;;26.42;19.83
77939;BME280;67136;47.546;21.630;2023-05-10T11:37:48;100430.78;;;24.98;21.87
77939;BME280;67136;47.546;21.630;2023-05-10T11:41:08;100429.16;;;24.46;22.53
77939;BME280;67136;47.546;21.630;2023-05-10T11:44:17;100426.25;;;24.10;22.49
77939;BME280;67136;47.546;21.630;2023-05-10T11:47:23;100419.91;;;23.85;23.09
77939;BME280;67136;47.546;21.630;2023-05-10T11:50:28;100427.59;;;26.72;20.13
77939;BME280;67136;47.546;21.630;2023-05-10T11:53:41;100410.75;;;29.01;17.76
77939;BME280;67136;47.546;21.630;2023-05-10T11:56:51;100415.59;;;31.26;16.10
77939;BME280;67136;47.546;21.630;2023-05-10T11:59:56;100405.03;;;29.47;17.60
77939;BME280;67136;47.546;21.630;2023-05-10T12:03:02;100418.59;;;30.50;16.56
77939;BME280;67136;47.546;21.630;2023-05-10T12:06:09;100407.97;;;28.96;17.68
77939;BME280;67136;47.546;21.630;2023-05-10T12:09:11;100412.25;;;25.52;20.59
77939;BME280;67136;47.546;21.630;2023-05-10T12:12:23;100412.19;;;29.20;17.46
77939;BME280;67136;47.546;21.630;2023-05-10T12:15:42;100404.28;;;28.57;18.16
77939;BME280;67136;47.546;21.630;2023-05-10T12:18:57;100407.16;;;27.01;19.34
77939;BME280;67136;47.546;21.630;2023-05-10T12:22:07;100401.69;;;29.23;17.27
77939;BME280;67136;47.546;21.630;2023-05-10T12:25:10;100396.72;;;27.80;18.43
77939;BME280;67136;47.546;21.630;2023-05-10T12:28:19;100394.59;;;26.53;19.37
77939;BME280;67136;47.546;21.630;2023-05-10T12:31:57;100402.34;;;25.96;19.73
77939;BME280;67136;47.546;21.630;2023-05-10T12:35:00;100391.34;;;25.12;20.29
77939;BME280;67136;47.546;21.630;2023-05-10T12:41:38;100389.72;;;25.78;19.67
77939;BME280;67136;47.546;21.630;2023-05-10T12:45:00;100378.84;;;25.91;19.59
77939;BME280;67136;47.546;21.630;2023-05-10T12:48:02;100376.53;;;25.34;20.42
77939;BME280;67136;47.546;21.630;2023-05-10T12:51:08;100384.66;;;25.88;20.06
77939;BME280;67136;47.546;21.630;2023-05-10T12:54:18;100369.66;;;26.05;19.70
77939;BME280;67136;47.546;21.630;2023-05-10T12:57:29;100367.16;;;24.69;21.00
77939;BME280;67136;47.546;21.630;2023-05-10T13:00:39;100362.53;;;25.38;21.09
77939;BME280;67136;47.546;21.630;2023-05-10T13:03:47;100351.88;;;24.38;22.65
77939;BME280;67136;47.546;21.630;2023-05-10T13:06:55;100357.59;;;24.86;21.85
77939;BME280;67136;47.546;21.630;2023-05-10T13:10:15;100355.66;;;24.24;22.19
77939;BME280;67136;47.546;21.630;2023-05-10T13:13:25;100349.75;;;23.32;23.21
77939;BME280;67136;47.546;21.630;2023-05-10T13:16:37;100347.19;;;23.77;22.30
77939;BME280;67136;47.546;21.630;2023-05-10T13:19:48;100354.66;;;23.22;22.61
77939;BME280;67136;47.546;21.630;2023-05-10T13:23:02;100344.16;;;22.69;23.33
77939;BME280;67136;47.546;21.630;2023-05-10T13:26:06;100346.50;;;22.25;24.15
77939;BME280;67136;47.546;21.630;2023-05-10T13:29:33;100345.94;;;22.49;23.81
77939;BME280;67136;47.546;21.630;2023-05-10T13:32:38;100355.47;;;22.10;23.80
77939;BME280;67136;47.546;21.630;2023-05-10T13:35:45;100346.03;;;22.75;23.80
77939;BME280;67136;47.546;21.630;2023-05-10T13:39:09;100336.00;;;23.29;23.18
77939;BME280;67136;47.546;21.630;2023-05-10T13:42:33;100341.34;;;23.29;23.09
77939;BME280;67136;47.546;21.630;2023-05-10T13:45:36;100320.34;;;23.46;22.80
77939;BME280;67136;47.546;21.630;2023-05-10T13:48:59;100323.47;;;23.29;23.34
77939;BME280;67136;47.546;21.630;2023-05-10T13:52:08;100323.81;;;24.85;21.51
77939;BME280;67136;47.546;21.630;2023-05-10T13:55:22;100312.72;;;24.88;21.02
77939;BME280;67136;47.546;21.630;2023-05-10T13:58:27;100314.13;;;26.95;19.26
77939;BME280;67136;47.546;21.630;2023-05-10T14:01:37;100316.62;;;27.31;18.71
77939;BME280;67136;47.546;21.630;2023-05-10T14:04:41;100316.22;;;28.69;17.98
77939;BME280;67136;47.546;21.630;2023-05-10T14:07:46;100303.94;;;26.73;18.67
77939;BME280;67136;47.546;21.630;2023-05-10T14:10:54;100307.72;;;25.77;19.36
77939;BME280;67136;47.546;21.630;2023-05-10T14:14:03;100312.84;;;25.60;20.24
77939;BME280;67136;47.546;21.630;2023-05-10T14:17:13;100298.72;;;25.11;20.67
77939;BME280;67136;47.546;21.630;2023-05-10T14:20:18;100301.50;;;24.67;21.19
77939;BME280;67136;47.546;21.630;2023-05-10T14:23:25;100300.81;;;25.99;19.94
77939;BME280;67136;47.546;21.630;2023-05-10T14:26:29;100294.69;;;25.62;20.23
77939;BME280;67136;47.546;21.630;2023-05-10T14:29:50;100299.19;;;25.26;20.20
77939;BME280;67136;47.546;21.630;2023-05-10T14:33:01;100288.13;;;24.67;20.41
77939;BME280;67136;47.546;21.630;2023-05-10T14:36:08;100289.47;;;23.82;21.32
77939;BME280;67136;47.546;21.630;2023-05-10T14:39:20;100292.56;;;24.86;20.33
77939;BME280;67136;47.546;21.630;2023-05-10T14:42:34;100286.72;;;23.38;21.77
77939;BME280;67136;47.546;21.630;2023-05-10T14:45:39;100291.16;;;22.27;23.28
77939;BME280;67136;47.546;21.630;2023-05-10T14:48:52;100277.47;;;23.91;21.71
77939;BME280;67136;47.546;21.630;2023-05-10T14:52:22;100275.72;;;23.72;21.71
77939;BME280;67136;47.546;21.630;2023-05-10T14:55:32;100287.91;;;23.42;22.15
77939;BME280;67136;47.546;21.630;2023-05-10T14:58:45;100279.59;;;23.76;22.03
77939;BME280;67136;47.546;21.630;2023-05-10T15:02:07;100271.91;;;24.37;20.70
77939;BME280;67136;47.546;21.630;2023-05-10T15:05:16;100270.00;;;23.56;22.00
77939;BME280;67136;47.546;21.630;2023-05-10T15:08:22;100284.53;;;22.03;23.07
77939;BME280;67136;47.546;21.630;2023-05-10T15:11:34;100271.31;;;21.75;23.58
77939;BME280;67136;47.546;21.630;2023-05-10T15:14:46;100276.38;;;21.23;24.59
77939;BME280;67136;47.546;21.630;2023-05-10T15:17:50;100275.13;;;21.26;24.58
77939;BME280;67136;47.546;21.630;2023-05-10T15:21:04;100276.53;;;20.94;24.72
77939;BME280;67136;47.546;21.630;2023-05-10T15:24:11;100274.81;;;21.08;24.77
77939;BME280;67136;47.546;21.630;2023-05-10T15:27:32;100262.75;;;20.84;24.82
77939;BME280;67136;47.546;21.630;2023-05-10T15:30:46;100265.97;;;20.73;25.17
77939;BME280;67136;47.546;21.630;2023-05-10T15:34:07;100263.72;;;20.28;25.79
77939;BME280;67136;47.546;21.630;2023-05-10T15:37:11;100259.97;;;20.22;25.81
77939;BME280;67136;47.546;21.630;2023-05-10T15:40:20;100258.31;;;19.86;26.29
77939;BME280;67136;47.546;21.630;2023-05-10T15:43:25;100261.09;;;19.99;26.56
77939;BME280;67136;47.546;21.630;2023-05-10T15:46:31;100251.50;;;19.62;26.93
77939;BME280;67136;47.546;21.630;2023-05-10T15:49:48;100259.06;;;19.21;27.29
77939;BME280;67136;47.546;21.630;2023-05-10T15:52:54;100265.47;;;19.12;27.84
77939;BME280;67136;47.546;21.630;2023-05-10T15:56:02;100258.59;;;19.18;27.53
77939;BME280;67136;47.546;21.630;2023-05-10T15:59:18;100263.53;;;19.06;27.96
77939;BME280;67136;47.546;21.630;2023-05-10T16:02:35;100261.88;;;19.05;27.92
77939;BME280;67136;47.546;21.630;2023-05-10T16:05:45;100261.34;;;19.10;28.91
77939;BME280;67136;47.546;21.630;2023-05-10T16:09:22;100255.03;;;18.96;28.50
77939;BME280;67136;47.546;21.630;2023-05-10T16:12:33;100252.47;;;18.88;28.50
77939;BME280;67136;47.546;21.630;2023-05-10T16:15:44;100258.06;;;18.93;28.66
77939;BME280;67136;47.546;21.630;2023-05-10T16:18:53;100251.91;;;18.78;28.98
77939;BME280;67136;47.546;21.630;2023-05-10T16:22:13;100256.91;;;18.73;29.42
77939;BME280;67136;47.546;21.630;2023-05-10T16:25:36;100250.63;;;18.51;29.62
77939;BME280;67136;47.546;21.630;2023-05-10T16:29:01;100250.87;;;18.42;29.63
77939;BME280;67136;47.546;21.630;2023-05-10T16:32:04;100261.81;;;18.39;30.02
77939;BME280;67136;47.546;21.630;2023-05-10T16:35:17;100260.19;;;18.30;30.11
77939;BME280;67136;47.546;21.630;2023-05-10T16:38:36;100268.25;;;18.14;30.40
77939;BME280;67136;47.546;21.630;2023-05-10T16:41:41;100264.37;;;18.02;30.45
77939;BME280;67136;47.546;21.630;2023-05-10T16:44:52;100271.00;;;17.98;30.39
77939;BME280;67136;47.546;21.630;2023-05-10T16:48:04;100267.75;;;17.88;30.59
77939;BME280;67136;47.546;21.630;2023-05-10T16:51:25;100275.56;;;17.81;30.74
77939;BME280;67136;47.546;21.630;2023-05-10T16:54:31;100280.41;;;17.70;31.16
77939;BME280;67136;47.546;21.630;2023-05-10T16:57:39;100282.25;;;17.61;31.15
77939;BME280;67136;47.546;21.630;2023-05-10T17:00:55;100281.47;;;17.53;31.58
77939;BME280;67136;47.546;21.630;2023-05-10T17:04:01;100286.09;;;17.51;31.33
77939;BME280;67136;47.546;21.630;2023-05-10T17:07:08;100287.94;;;17.42;31.39
77939;BME280;67136;47.546;21.630;2023-05-10T17:10:24;100288.09;;;17.32;31.45
77939;BME280;67136;47.546;21.630;2023-05-10T17:13:29;100281.84;;;17.25;31.92
77939;BME280;67136;47.546;21.630;2023-05-10T17:16:48;100286.66;;;17.14;32.71
77939;BME280;67136;47.546;21.630;2023-05-10T17:20:00;100291.47;;;17.02;32.82
77939;BME280;67136;47.546;21.630;2023-05-10T17:23:08;100288.84;;;16.94;33.51
77939;BME280;67136;47.546;21.630;2023-05-10T17:26:14;100294.16;;;16.86;33.82
77939;BME280;67136;47.546;21.630;2023-05-10T17:29:26;100289.88;;;16.69;34.89
77939;BME280;67136;47.546;21.630;2023-05-10T17:32:33;100285.22;;;16.55;34.78
77939;BME280;67136;47.546;21.630;2023-05-10T17:35:51;100291.16;;;16.41;34.90
77939;BME280;67136;47.546;21.630;2023-05-10T17:39:00;100301.84;;;16.24;35.35
77939;BME280;67136;47.546;21.630;2023-05-10T17:42:07;100300.97;;;16.07;36.53
77939;BME280;67136;47.546;21.630;2023-05-10T17:45:24;100297.31;;;15.92;36.35
77939;BME280;67136;47.546;21.630;2023-05-10T17:48:28;100306.81;;;15.77;36.64
77939;BME280;67136;47.546;21.630;2023-05-10T17:51:35;100301.16;;;15.64;36.96
77939;BME280;67136;47.546;21.630;2023-05-10T17:54:42;100307.69;;;15.52;37.52
77939;BME280;67136;47.546;21.630;2023-05-10T17:57:45;100304.28;;;15.34;37.79
77939;BME280;67136;47.546;21.630;2023-05-10T18:00:55;100298.59;;;15.21;37.98